sensor_id;sensor_type;location;lat;lon;timestamp;pressure;altitude;pressure_sealevel;temperature;humidity
71791;BME280;59638;52.126;5.434;2024-03-08T00:02:12;101971.47;;;2.31;100.00
71791;BME280;59638;52.126;5.434;2024-03-08T00:04:39;101963.72;;;2.29;100.00
71791;BME280;59638;52.126;5.434;2024-03-08T00:07:06;101968.16;;;2.27;100.00
71791;BME280;59638;52.126;5.434;2024-03-08T00:09:33;101962.09;;;2.27;100.00
71791;BME280;59638;52.126;5.434;2024-03-08T00:12:00;101960.41;;;2.26;100.00
71791;BME280;59638;52.126;5.434;2024-03-08T00:14:26;101954.38;;;2.24;100.00
71791;BME280;59638;52.126;5.434;2024-03-08T00:16:54;101957.19;;;2.19;100.00
71791;BME280;59638;52.126;5.434;2024-03-08T00:19:20;101952.97;;;2.15;100.00
71791;BME280;59638;52.126;5.434;2024-03-08T00:21:47;101954.69;;;2.16;100.00
71791;BME280;59638;52.126;5.434;2024-03-08T00:24:13;101953.97;;;2.12;100.00
71791;BME280;59638;52.126;5.434;2024-03-08T00:26:40;101953.97;;;2.11;100.00
71791;BME280;59638;52.126;5.434;2024-03-08T00:29:08;101947.16;;;2.08;100.00
71791;BME280;59638;52.126;5.434;2024-03-08T00:31:35;101948.00;;;2.09;100.00
71791;BME280;59638;52.126;5.434;2024-03-08T00:34:01;101959.44;;;2.05;100.00
71791;BME280;59638;52.126;5.434;2024-03-08T00:36:28;101945.84;;;1.97;100.00
71791;BME280;59638;52.126;5.434;2024-03-08T00:38:56;101948.44;;;1.97;100.00
71791;BME280;59638;52.126;5.434;2024-03-08T00:41:23;101942.44;;;1.95;100.00
71791;BME280;59638;52.126;5.434;2024-03-08T00:43:49;101941.53;;;1.96;100.00
71791;BME280;59638;52.126;5.434;2024-03-08T00:46:16;101945.03;;;1.95;100.00
71791;BME280;59638;52.126;5.434;2024-03-08T00:48:43;101941.66;;;1.93;100.00
71791;BME280;59638;52.126;5.434;2024-03-08T00:51:10;101932.31;;;1.87;100.00
71791;BME280;59638;52.126;5.434;2024-03-08T00:53:37;101934.97;;;1.85;100.00
71791;BME280;59638;52.126;5.434;2024-03-08T00:56:03;101929.81;;;1.84;100.00
71791;BME280;59638;52.126;5.434;2024-03-08T00:58:30;101924.72;;;1.81;100.00
71791;BME280;59638;52.126;5.434;2024-03-08T01:00:57;101922.97;;;1.81;100.00
71791;BME280;59638;52.126;5.434;2024-03-08T01:03:23;101916.06;;;1.80;100.00
71791;BME280;59638;52.126;5.434;2024-03-08T01:05:50;101906.50;;;1.81;100.00
71791;BME280;59638;52.126;5.434;2024-03-08T01:08:17;101904.88;;;1.78;100.00
71791;BME280;59638;52.126;5.434;2024-03-08T01:10:44;101902.34;;;1.75;100.00
71791;BME280;59638;52.126;5.434;2024-03-08T01:13:10;101891.94;;;1.75;100.00
71791;BME280;59638;52.126;5.434;2024-03-08T01:15:37;101896.31;;;1.75;100.00
71791;BME280;59638;52.126;5.434;2024-03-08T01:18:07;101892.06;;;1.72;100.00
71791;BME280;59638;52.126;5.434;2024-03-08T01:20:34;101886.97;;;1.69;100.00
71791;BME280;59638;52.126;5.434;2024-03-08T01:23:01;101887.09;;;1.66;100.00
71791;BME280;59638;52.126;5.434;2024-03-08T01:25:27;101883.66;;;1.64;100.00
71791;BME280;59638;52.126;5.434;2024-03-08T01:27:54;101880.28;;;1.62;100.00
71791;BME280;59638;52.126;5.434;2024-03-08T01:30:20;101888.09;;;1.62;100.00
71791;BME280;59638;52.126;5.434;2024-03-08T01:32:47;101885.59;;;1.59;100.00
71791;BME280;59638;52.126;5.434;2024-03-08T01:35:14;101877.88;;;1.56;100.00
71791;BME280;59638;52.126;5.434;2024-03-08T01:37:40;101870.22;;;1.53;100.00
71791;BME280;59638;52.126;5.434;2024-03-08T01:40:07;101868.59;;;1.49;100.00
71791;BME280;59638;52.126;5.434;2024-03-08T01:42:35;101866.91;;;1.48;100.00
71791;BME280;59638;52.126;5.434;2024-03-08T01:45:05;101873.13;;;1.44;100.00
71791;BME280;59638;52.126;5.434;2024-03-08T01:47:32;101866.28;;;1.41;100.00
71791;BME280;59638;52.126;5.434;2024-03-08T01:50:00;101857.72;;;1.38;100.00
71791;BME280;59638;52.126;5.434;2024-03-08T01:52:29;101863.94;;;1.33;100.00
71791;BME280;59638;52.126;5.434;2024-03-08T01:54:59;101856.25;;;1.30;100.00
71791;BME280;59638;52.126;5.434;2024-03-08T01:57:28;101850.19;;;1.30;100.00
71791;BME280;59638;52.126;5.434;2024-03-08T01:59:57;101855.44;;;1.28;100.00
71791;BME280;59638;52.126;5.434;2024-03-08T02:02:24;101852.91;;;1.27;100.00
71791;BME280;59638;52.126;5.434;2024-03-08T02:04:50;101846.03;;;1.24;100.00
71791;BME280;59638;52.126;5.434;2024-03-08T02:07:19;101852.28;;;1.20;100.00
71791;BME280;59638;52.126;5.434;2024-03-08T02:09:45;101854.97;;;1.17;100.00
71791;BME280;59638;52.126;5.434;2024-03-08T02:12:12;101844.69;;;1.14;100.00
71791;BME280;59638;52.126;5.434;2024-03-08T02:14:38;101851.78;;;1.09;100.00
71791;BME280;59638;52.126;5.434;2024-03-08T02:17:06;101840.59;;;1.07;100.00
71791;BME280;59638;52.126;5.434;2024-03-08T02:19:34;101836.34;;;1.04;100.00
71791;BME280;59638;52.126;5.434;2024-03-08T02:22:02;101832.94;;;1.02;100.00
71791;BME280;59638;52.126;5.434;2024-03-08T02:24:32;101835.66;;;0.99;100.00
71791;BME280;59638;52.126;5.434;2024-03-08T02:27:00;101836.53;;;0.98;100.00
71791;BME280;59638;52.126;5.434;2024-03-08T02:29:26;101831.47;;;0.95;100.00
71791;BME280;59638;52.126;5.434;2024-03-08T02:31:53;101829.00;;;0.91;100.00
71791;BME280;59638;52.126;5.434;2024-03-08T02:34:19;101831.53;;;0.92;100.00
71791;BME280;59638;52.126;5.434;2024-03-08T02:36:46;101824.72;;;0.90;100.00
71791;BME280;59638;52.126;5.434;2024-03-08T02:39:13;101818.78;;;0.86;100.00
71791;BME280;59638;52.126;5.434;2024-03-08T02:41:39;101815.31;;;0.86;100.00
71791;BME280;59638;52.126;5.434;2024-03-08T02:44:06;101817.97;;;0.84;100.00
71791;BME280;59638;52.126;5.434;2024-03-08T02:46:33;101804.28;;;0.79;100.00
71791;BME280;59638;52.126;5.434;2024-03-08T02:49:02;101806.06;;;0.77;100.00
71791;BME280;59638;52.126;5.434;2024-03-08T02:51:29;101806.22;;;0.72;100.00
71791;BME280;59638;52.126;5.434;2024-03-08T02:53:55;101799.25;;;0.74;100.00
71791;BME280;59638;52.126;5.434;2024-03-08T02:56:22;101796.66;;;0.74;100.00
71791;BME280;59638;52.126;5.434;2024-03-08T02:58:48;101793.16;;;0.75;100.00
71791;BME280;59638;52.126;5.434;2024-03-08T03:01:15;101800.16;;;0.73;100.00
71791;BME280;59638;52.126;5.434;2024-03-08T03:03:42;101789.00;;;0.70;100.00
71791;BME280;59638;52.126;5.434;2024-03-08T03:06:09;101793.34;;;0.69;100.00
71791;BME280;59638;52.126;5.434;2024-03-08T03:08:36;101789.00;;;0.70;100.00
71791;BME280;59638;52.126;5.434;2024-03-08T03:11:03;101783.84;;;0.68;100.00
71791;BME280;59638;52.126;5.434;2024-03-08T03:13:29;101777.91;;;0.65;100.00
71791;BME280;59638;52.126;5.434;2024-03-08T03:15:56;101778.06;;;0.60;100.00
71791;BME280;59638;52.126;5.434;2024-03-08T03:18:24;101779.00;;;0.58;100.00
71791;BME280;59638;52.126;5.434;2024-03-08T03:20:52;101781.66;;;0.56;100.00
71791;BME280;59638;52.126;5.434;2024-03-08T03:23:18;101769.66;;;0.52;100.00
71791;BME280;59638;52.126;5.434;2024-03-08T03:25:47;101768.78;;;0.53;100.00
71791;BME280;59638;52.126;5.434;2024-03-08T03:28:13;101762.78;;;0.51;100.00
71791;BME280;59638;52.126;5.434;2024-03-08T03:30:45;101762.78;;;0.51;100.00
71791;BME280;59638;52.126;5.434;2024-03-08T03:33:12;101766.28;;;0.50;100.00
71791;BME280;59638;52.126;5.434;2024-03-08T03:35:41;101762.88;;;0.48;100.00
71791;BME280;59638;52.126;5.434;2024-03-08T03:38:09;101760.28;;;0.48;100.00
71791;BME280;59638;52.126;5.434;2024-03-08T03:40:38;101764.63;;;0.47;100.00
71791;BME280;59638;52.126;5.434;2024-03-08T03:43:05;101757.69;;;0.48;100.00
71791;BME280;59638;52.126;5.434;2024-03-08T03:45:32;101748.16;;;0.48;100.00
71791;BME280;59638;52.126;5.434;2024-03-08T03:48:08;101750.69;;;0.50;100.00
71791;BME280;59638;52.126;5.434;2024-03-08T03:50:37;101752.38;;;0.51;100.00
71791;BME280;59638;52.126;5.434;2024-03-08T03:53:04;101750.75;;;0.48;100.00
71791;BME280;59638;52.126;5.434;2024-03-08T03:55:30;101751.59;;;0.49;100.00
71791;BME280;59638;52.126;5.434;2024-03-08T03:57:57;101747.31;;;0.48;100.00
71791;BME280;59638;52.126;5.434;2024-03-08T04:00:26;101754.19;;;0.49;100.00
71791;BME280;59638;52.126;5.434;2024-03-08T04:02:53;101748.09;;;0.50;100.00
71791;BME280;59638;52.126;5.434;2024-03-08T04:05:21;101749.00;;;0.49;100.00
71791;BME280;59638;52.126;5.434;2024-03-08T04:07:47;101744.72;;;0.48;100.00
71791;BME280;59638;52.126;5.434;2024-03-08T04:10:14;101747.19;;;0.51;100.00
71791;BME280;59638;52.126;5.434;2024-03-08T04:12:40;101733.28;;;0.52;100.00
71791;BME280;59638;52.126;5.434;2024-03-08T04:15:07;101747.19;;;0.51;100.00
71791;BME280;59638;52.126;5.434;2024-03-08T04:17:34;101736.00;;;0.49;100.00
71791;BME280;59638;52.126;5.434;2024-03-08T04:20:04;101733.41;;;0.49;100.00
71791;BME280;59638;52.126;5.434;2024-03-08T04:22:38;101727.38;;;0.48;100.00
71791;BME280;59638;52.126;5.434;2024-03-08T04:25:06;101727.44;;;0.47;100.00
71791;BME280;59638;52.126;5.434;2024-03-08T04:27:33;101723.94;;;0.48;100.00
71791;BME280;59638;52.126;5.434;2024-03-08T04:30:01;101738.59;;;0.49;100.00
71791;BME280;59638;52.126;5.434;2024-03-08T04:32:28;101725.69;;;0.47;100.00
71791;BME280;59638;52.126;5.434;2024-03-08T04:34:56;101730.88;;;0.47;100.00
71791;BME280;59638;52.126;5.434;2024-03-08T04:37:23;101725.72;;;0.46;100.00
71791;BME280;59638;52.126;5.434;2024-03-08T04:39:50;101720.47;;;0.47;100.00
71791;BME280;59638;52.126;5.434;2024-03-08T04:42:16;101719.72;;;0.44;100.00
71791;BME280;59638;52.126;5.434;2024-03-08T04:44:44;101716.22;;;0.45;100.00
71791;BME280;59638;52.126;5.434;2024-03-08T04:47:11;101711.94;;;0.44;100.00
71791;BME280;59638;52.126;5.434;2024-03-08T04:49:37;101716.34;;;0.42;100.00
71791;BME280;59638;52.126;5.434;2024-03-08T04:52:04;101714.66;;;0.41;100.00
71791;BME280;59638;52.126;5.434;2024-03-08T04:54:31;101710.44;;;0.37;100.00
71791;BME280;59638;52.126;5.434;2024-03-08T04:56:57;101712.94;;;0.40;100.00
71791;BME280;59638;52.126;5.434;2024-03-08T04:59:24;101707.75;;;0.40;100.00
71791;BME280;59638;52.126;5.434;2024-03-08T05:01:50;101710.44;;;0.37;100.00
71791;BME280;59638;52.126;5.434;2024-03-08T05:04:17;101710.44;;;0.37;100.00
71791;BME280;59638;52.126;5.434;2024-03-08T05:06:44;101701.88;;;0.35;100.00
71791;BME280;59638;52.126;5.434;2024-03-08T05:09:10;101702.06;;;0.29;100.00
71791;BME280;59638;52.126;5.434;2024-03-08T05:11:41;101716.84;;;0.26;100.00
71791;BME280;59638;52.126;5.434;2024-03-08T05:14:08;101710.78;;;0.26;100.00
71791;BME280;59638;52.126;5.434;2024-03-08T05:16:34;101716.84;;;0.26;100.00
71791;BME280;59638;52.126;5.434;2024-03-08T05:19:02;101710.00;;;0.24;100.00
71791;BME280;59638;52.126;5.434;2024-03-08T05:21:28;101708.25;;;0.24;100.00
71791;BME280;59638;52.126;5.434;2024-03-08T05:23:55;101705.59;;;0.26;100.00
71791;BME280;59638;52.126;5.434;2024-03-08T05:26:21;101703.22;;;0.20;100.00
71791;BME280;59638;52.126;5.434;2024-03-08T05:28:48;101709.34;;;0.17;100.00
71791;BME280;59638;52.126;5.434;2024-03-08T05:31:22;101703.38;;;0.15;100.00
71791;BME280;59638;52.126;5.434;2024-03-08T05:33:49;101703.38;;;0.15;100.00
71791;BME280;59638;52.126;5.434;2024-03-08T05:36:16;101699.88;;;0.16;100.00
71791;BME280;59638;52.126;5.434;2024-03-08T05:38:43;101701.56;;;0.17;100.00
71791;BME280;59638;52.126;5.434;2024-03-08T05:41:10;101692.13;;;0.15;100.00
71791;BME280;59638;52.126;5.434;2024-03-08T05:43:38;101694.72;;;0.15;100.00
71791;BME280;59638;52.126;5.434;2024-03-08T05:46:08;101692.13;;;0.15;100.00
71791;BME280;59638;52.126;5.434;2024-03-08T05:48:34;101688.84;;;0.10;100.00
71791;BME280;59638;52.126;5.434;2024-03-08T05:51:01;101696.50;;;0.13;100.00
71791;BME280;59638;52.126;5.434;2024-03-08T05:53:29;101684.50;;;0.10;100.00
71791;BME280;59638;52.126;5.434;2024-03-08T05:55:58;101691.38;;;0.11;100.00
71791;BME280;59638;52.126;5.434;2024-03-08T05:58:25;101684.50;;;0.10;100.00
71791;BME280;59638;52.126;5.434;2024-03-08T06:00:51;101677.59;;;0.09;100.00
71791;BME280;59638;52.126;5.434;2024-03-08T06:03:19;101674.91;;;0.12;100.00
71791;BME280;59638;52.126;5.434;2024-03-08T06:05:48;101665.34;;;0.14;100.00
71791;BME280;59638;52.126;5.434;2024-03-08T06:08:15;101666.97;;;0.17;100.00
71791;BME280;59638;52.126;5.434;2024-03-08T06:10:42;101671.25;;;0.18;100.00
71791;BME280;59638;52.126;5.434;2024-03-08T06:13:09;101669.56;;;0.17;100.00
71791;BME280;59638;52.126;5.434;2024-03-08T06:15:35;101668.72;;;0.16;100.00
71791;BME280;59638;52.126;5.434;2024-03-08T06:18:02;101674.69;;;0.18;100.00
71791;BME280;59638;52.126;5.434;2024-03-08T06:20:29;101666.88;;;0.20;100.00
71791;BME280;59638;52.126;5.434;2024-03-08T06:22:55;101665.91;;;0.22;100.00
71791;BME280;59638;52.126;5.434;2024-03-08T06:25:22;101665.13;;;0.20;100.00
71791;BME280;59638;52.126;5.434;2024-03-08T06:27:48;101673.72;;;0.22;100.00
71791;BME280;59638;52.126;5.434;2024-03-08T06:30:15;101666.72;;;0.24;100.00
71791;BME280;59638;52.126;5.434;2024-03-08T06:32:42;101669.22;;;0.28;100.00
71791;BME280;59638;52.126;5.434;2024-03-08T06:35:09;101670.84;;;0.30;100.00
71791;BME280;59638;52.126;5.434;2024-03-08T06:37:36;101668.19;;;0.32;100.00
71791;BME280;59638;52.126;5.434;2024-03-08T06:40:03;101663.81;;;0.34;100.00
71791;BME280;59638;52.126;5.434;2024-03-08T06:42:30;101662.72;;;0.41;100.00
71791;BME280;59638;52.126;5.434;2024-03-08T06:45:01;101668.63;;;0.44;100.00
71791;BME280;59638;52.126;5.434;2024-03-08T06:47:31;101662.50;;;0.47;100.00
71791;BME280;59638;52.126;5.434;2024-03-08T06:49:58;101660.56;;;0.52;100.00
71791;BME280;59638;52.126;5.434;2024-03-08T06:52:24;101663.00;;;0.57;100.00
71791;BME280;59638;52.126;5.434;2024-03-08T06:54:51;101652.53;;;0.60;100.00
71791;BME280;59638;52.126;5.434;2024-03-08T06:57:18;101649.75;;;0.64;100.00
71791;BME280;59638;52.126;5.434;2024-03-08T06:59:48;101648.69;;;0.70;100.00
71791;BME280;59638;52.126;5.434;2024-03-08T07:02:15;101659.63;;;0.79;100.00
71791;BME280;59638;52.126;5.434;2024-03-08T07:04:42;101655.97;;;0.84;100.00
71791;BME280;59638;52.126;5.434;2024-03-08T07:07:08;101659.13;;;0.92;100.00
71791;BME280;59638;52.126;5.434;2024-03-08T07:09:38;101651.09;;;0.99;100.00
71791;BME280;59638;52.126;5.434;2024-03-08T07:12:04;101648.28;;;1.04;100.00
71791;BME280;59638;52.126;5.434;2024-03-08T07:14:31;101646.25;;;1.12;100.00
71791;BME280;59638;52.126;5.434;2024-03-08T07:16:57;101645.25;;;1.38;100.00
71791;BME280;59638;52.126;5.434;2024-03-08T07:19:24;101645.31;;;1.58;100.00
71791;BME280;59638;52.126;5.434;2024-03-08T07:21:50;101646.19;;;1.59;100.00
71791;BME280;59638;52.126;5.434;2024-03-08T07:24:17;101654.78;;;1.61;100.00
71791;BME280;59638;52.126;5.434;2024-03-08T07:26:44;101640.97;;;1.81;100.00
71791;BME280;59638;52.126;5.434;2024-03-08T07:29:10;101636.22;;;1.90;100.00
71791;BME280;59638;52.126;5.434;2024-03-08T07:31:37;101634.44;;;1.93;100.00
71791;BME280;59638;52.126;5.434;2024-03-08T07:34:03;101628.59;;;2.08;100.00
71791;BME280;59638;52.126;5.434;2024-03-08T07:36:34;101627.09;;;2.23;100.00
71791;BME280;59638;52.126;5.434;2024-03-08T07:39:01;101633.72;;;2.30;100.00
71791;BME280;59638;52.126;5.434;2024-03-08T07:41:28;101617.50;;;2.43;100.00
71791;BME280;59638;52.126;5.434;2024-03-08T07:43:57;101624.25;;;2.68;100.00
71791;BME280;59638;52.126;5.434;2024-03-08T07:46:23;101614.69;;;2.87;100.00
71791;BME280;59638;52.126;5.434;2024-03-08T07:48:50;101611.31;;;2.85;100.00
71791;BME280;59638;52.126;5.434;2024-03-08T07:51:18;101617.50;;;3.02;100.00
71791;BME280;59638;52.126;5.434;2024-03-08T07:53:44;101614.72;;;3.42;100.00
71791;BME280;59638;52.126;5.434;2024-03-08T07:56:11;101609.41;;;3.63;100.00
71791;BME280;59638;52.126;5.434;2024-03-08T07:58:39;101601.06;;;3.73;100.00
71791;BME280;59638;52.126;5.434;2024-03-08T08:01:18;101600.66;;;3.81;100.00
71791;BME280;59638;52.126;5.434;2024-03-08T08:03:45;101592.91;;;4.31;100.00
71791;BME280;59638;52.126;5.434;2024-03-08T08:06:12;101586.66;;;4.51;100.00
71791;BME280;59638;52.126;5.434;2024-03-08T08:08:42;101595.69;;;4.61;100.00
71791;BME280;59638;52.126;5.434;2024-03-08T08:11:09;101590.00;;;4.53;100.00
71791;BME280;59638;52.126;5.434;2024-03-08T08:13:37;101579.44;;;4.72;100.00
71791;BME280;59638;52.126;5.434;2024-03-08T08:16:05;101576.16;;;5.00;100.00
71791;BME280;59638;52.126;5.434;2024-03-08T08:18:32;101576.41;;;5.11;100.00
71791;BME280;59638;52.126;5.434;2024-03-08T08:20:59;101578.78;;;5.32;100.00
71791;BME280;59638;52.126;5.434;2024-03-08T08:23:28;101578.19;;;5.27;100.00
71791;BME280;59638;52.126;5.434;2024-03-08T08:25:56;101565.25;;;5.55;100.00
71791;BME280;59638;52.126;5.434;2024-03-08T08:28:22;101572.75;;;5.61;100.00
71791;BME280;59638;52.126;5.434;2024-03-08T08:30:49;101569.84;;;5.66;100.00
71791;BME280;59638;52.126;5.434;2024-03-08T08:33:16;101568.03;;;5.52;100.00
71791;BME280;59638;52.126;5.434;2024-03-08T08:35:42;101564.50;;;5.67;100.00
71791;BME280;59638;52.126;5.434;2024-03-08T08:38:09;101558.31;;;5.84;100.00
71791;BME280;59638;52.126;5.434;2024-03-08T08:40:35;101560.81;;;6.02;100.00
71791;BME280;59638;52.126;5.434;2024-03-08T08:43:05;101556.94;;;5.93;100.00
71791;BME280;59638;52.126;5.434;2024-03-08T08:45:31;101545.59;;;6.37;100.00
71791;BME280;59638;52.126;5.434;2024-03-08T08:47:57;101546.56;;;6.91;100.00
71791;BME280;59638;52.126;5.434;2024-03-08T08:50:26;101544.75;;;7.06;100.00
71791;BME280;59638;52.126;5.434;2024-03-08T08:52:54;101541.94;;;7.09;100.00
71791;BME280;59638;52.126;5.434;2024-03-08T08:55:21;101534.56;;;7.28;100.00
71791;BME280;59638;52.126;5.434;2024-03-08T08:57:52;101532.00;;;7.94;100.00
71791;BME280;59638;52.126;5.434;2024-03-08T09:00:19;101526.19;;;7.88;100.00
71791;BME280;59638;52.126;5.434;2024-03-08T09:02:46;101525.56;;;7.45;100.00
71791;BME280;59638;52.126;5.434;2024-03-08T09:05:14;101529.50;;;7.25;100.00
71791;BME280;59638;52.126;5.434;2024-03-08T09:07:43;101521.22;;;7.71;100.00
71791;BME280;59638;52.126;5.434;2024-03-08T09:10:11;101520.41;;;7.96;100.00
71791;BME280;59638;52.126;5.434;2024-03-08T09:12:44;101515.38;;;8.06;100.00
71791;BME280;59638;52.126;5.434;2024-03-08T09:15:10;101518.22;;;8.28;97.73
71791;BME280;59638;52.126;5.434;2024-03-08T09:17:40;101502.75;;;8.24;97.82
71791;BME280;59638;52.126;5.434;2024-03-08T09:20:09;101503.81;;;8.21;96.77
71791;BME280;59638;52.126;5.434;2024-03-08T09:22:36;101503.81;;;8.47;92.07
71791;BME280;59638;52.126;5.434;2024-03-08T09:25:04;101504.53;;;8.49;90.66
71791;BME280;59638;52.126;5.434;2024-03-08T09:27:32;101491.22;;;9.47;83.31
71791;BME280;59638;52.126;5.434;2024-03-08T09:29:59;101489.34;;;9.61;79.83
71791;BME280;59638;52.126;5.434;2024-03-08T09:32:27;101489.72;;;9.67;78.03
71791;BME280;59638;52.126;5.434;2024-03-08T09:34:54;101489.41;;;9.94;74.88
71791;BME280;59638;52.126;5.434;2024-03-08T09:37:21;101486.97;;;9.80;77.97
71791;BME280;59638;52.126;5.434;2024-03-08T09:39:49;101471.38;;;9.66;80.00
71791;BME280;59638;52.126;5.434;2024-03-08T09:42:16;101481.53;;;9.24;79.87
71791;BME280;59638;52.126;5.434;2024-03-08T09:44:46;101463.78;;;9.50;75.50
71791;BME280;59638;52.126;5.434;2024-03-08T09:47:13;101466.75;;;9.92;77.87
71791;BME280;59638;52.126;5.434;2024-03-08T09:49:41;101455.59;;;9.88;76.10
71791;BME280;59638;52.126;5.434;2024-03-08T09:52:07;101445.88;;;10.22;75.13
71791;BME280;59638;52.126;5.434;2024-03-08T09:54:34;101443.38;;;10.09;75.65
71791;BME280;59638;52.126;5.434;2024-03-08T09:57:03;101440.84;;;9.97;73.62
71791;BME280;59638;52.126;5.434;2024-03-08T09:59:30;101437.47;;;10.62;72.61
71791;BME280;59638;52.126;5.434;2024-03-08T10:02:03;101438.47;;;10.93;71.81
71791;BME280;59638;52.126;5.434;2024-03-08T10:04:31;101437.13;;;10.55;70.92
71791;BME280;59638;52.126;5.434;2024-03-08T10:07:00;101432.94;;;10.96;68.62
71791;BME280;59638;52.126;5.434;2024-03-08T10:09:27;101424.16;;;10.64;69.08
71791;BME280;59638;52.126;5.434;2024-03-08T10:11:57;101415.41;;;10.95;66.40
71791;BME280;59638;52.126;5.434;2024-03-08T10:14:25;101420.66;;;11.06;67.17
71791;BME280;59638;52.126;5.434;2024-03-08T10:16:53;101411.25;;;11.55;66.38
71791;BME280;59638;52.126;5.434;2024-03-08T10:19:20;101407.06;;;11.53;65.56
71791;BME280;59638;52.126;5.434;2024-03-08T10:21:51;101400.66;;;11.76;64.52
71791;BME280;59638;52.126;5.434;2024-03-08T10:24:23;101389.78;;;11.69;65.07
71791;BME280;59638;52.126;5.434;2024-03-08T10:26:58;101379.94;;;12.02;66.52
71791;BME280;59638;52.126;5.434;2024-03-08T10:29:24;101385.63;;;12.07;64.92
71791;BME280;59638;52.126;5.434;2024-03-08T10:31:51;101389.00;;;12.09;64.15
71791;BME280;59638;52.126;5.434;2024-03-08T10:34:18;101379.03;;;12.32;62.21
71791;BME280;59638;52.126;5.434;2024-03-08T10:36:49;101371.28;;;12.69;60.35
71791;BME280;59638;52.126;5.434;2024-03-08T10:39:22;101375.19;;;12.85;61.36
71791;BME280;59638;52.126;5.434;2024-03-08T10:41:53;101366.94;;;12.49;59.03
71791;BME280;59638;52.126;5.434;2024-03-08T10:44:36;101359.28;;;12.65;60.63
71791;BME280;59638;52.126;5.434;2024-03-08T10:47:18;101347.56;;;12.58;61.03
71791;BME280;59638;52.126;5.434;2024-03-08T10:49:55;101354.16;;;12.04;62.12
71791;BME280;59638;52.126;5.434;2024-03-08T10:52:31;101353.28;;;11.94;61.57
71791;BME280;59638;52.126;5.434;2024-03-08T10:54:59;101337.78;;;12.30;62.16
71791;BME280;59638;52.126;5.434;2024-03-08T10:57:26;101349.63;;;12.25;61.42
71791;BME280;59638;52.126;5.434;2024-03-08T10:59:54;101335.66;;;12.14;60.30
71791;BME280;59638;52.126;5.434;2024-03-08T11:02:25;101326.28;;;12.00;60.16
71791;BME280;59638;52.126;5.434;2024-03-08T11:04:53;101319.38;;;12.18;60.03
71791;BME280;59638;52.126;5.434;2024-03-08T11:07:22;101312.66;;;12.14;60.20
71791;BME280;59638;52.126;5.434;2024-03-08T11:09:49;101308.41;;;12.52;60.45
71791;BME280;59638;52.126;5.434;2024-03-08T11:12:20;101300.75;;;12.30;59.89
71791;BME280;59638;52.126;5.434;2024-03-08T11:14:48;101298.63;;;12.23;61.10
71791;BME280;59638;52.126;5.434;2024-03-08T11:17:20;101304.31;;;12.09;59.24
71791;BME280;59638;52.126;5.434;2024-03-08T11:19:47;101296.13;;;12.32;58.58
71791;BME280;59638;52.126;5.434;2024-03-08T11:22:22;101281.78;;;12.83;57.47
71791;BME280;59638;52.126;5.434;2024-03-08T11:24:50;101284.28;;;12.26;57.41
71791;BME280;59638;52.126;5.434;2024-03-08T11:27:16;101284.78;;;11.91;57.76
71791;BME280;59638;52.126;5.434;2024-03-08T11:29:43;101265.66;;;11.78;57.82
71791;BME280;59638;52.126;5.434;2024-03-08T11:32:16;101264.78;;;12.17;58.08
71791;BME280;59638;52.126;5.434;2024-03-08T11:34:46;101258.88;;;13.01;57.16
71791;BME280;59638;52.126;5.434;2024-03-08T11:37:15;101249.22;;;13.00;55.66
71791;BME280;59638;52.126;5.434;2024-03-08T11:39:52;101250.56;;;12.47;55.69
71791;BME280;59638;52.126;5.434;2024-03-08T11:42:19;101243.59;;;12.56;56.89
71791;BME280;59638;52.126;5.434;2024-03-08T11:44:46;101235.34;;;12.88;56.13
71791;BME280;59638;52.126;5.434;2024-03-08T11:47:15;101233.47;;;12.98;53.57
71791;BME280;59638;52.126;5.434;2024-03-08T11:49:42;101241.22;;;13.19;54.63
71791;BME280;59638;52.126;5.434;2024-03-08T11:52:11;101228.16;;;13.08;54.39
71791;BME280;59638;52.126;5.434;2024-03-08T11:54:42;101219.28;;;12.90;53.87
71791;BME280;59638;52.126;5.434;2024-03-08T11:57:09;101213.41;;;12.96;54.63
71791;BME280;59638;52.126;5.434;2024-03-08T11:59:36;101202.00;;;12.86;54.22
71791;BME280;59638;52.126;5.434;2024-03-08T12:02:04;101209.84;;;13.24;53.89
71791;BME280;59638;52.126;5.434;2024-03-08T12:04:32;101207.06;;;13.16;52.01
71791;BME280;59638;52.126;5.434;2024-03-08T12:07:00;101205.53;;;13.51;52.53
71791;BME280;59638;52.126;5.434;2024-03-08T12:09:36;101203.41;;;13.27;51.99
71791;BME280;59638;52.126;5.434;2024-03-08T12:12:03;101195.53;;;13.45;50.66
71791;BME280;59638;52.126;5.434;2024-03-08T12:14:30;101197.59;;;13.23;52.03
71791;BME280;59638;52.126;5.434;2024-03-08T12:16:58;101188.34;;;12.80;50.53
71791;BME280;59638;52.126;5.434;2024-03-08T12:19:25;101180.66;;;13.34;50.72
71791;BME280;59638;52.126;5.434;2024-03-08T12:21:51;101176.53;;;13.12;51.45
71791;BME280;59638;52.126;5.434;2024-03-08T12:24:18;101182.78;;;12.74;50.83
71791;BME280;59638;52.126;5.434;2024-03-08T12:26:48;101177.47;;;12.74;51.57
71791;BME280;59638;52.126;5.434;2024-03-08T12:29:25;101164.63;;;12.89;50.95
71791;BME280;59638;52.126;5.434;2024-03-08T12:31:58;101177.09;;;13.06;49.80
71791;BME280;59638;52.126;5.434;2024-03-08T12:34:27;101150.09;;;12.93;50.75
71791;BME280;59638;52.126;5.434;2024-03-08T12:36:57;101159.03;;;12.92;50.67
71791;BME280;59638;52.126;5.434;2024-03-08T12:39:24;101141.41;;;13.38;49.85
71791;BME280;59638;52.126;5.434;2024-03-08T12:41:54;101139.94;;;13.25;49.93
71791;BME280;59638;52.126;5.434;2024-03-08T12:44:21;101143.06;;;13.11;50.41
71791;BME280;59638;52.126;5.434;2024-03-08T12:46:52;101127.97;;;13.21;50.03
71791;BME280;59638;52.126;5.434;2024-03-08T12:49:20;101138.59;;;13.21;50.46
71791;BME280;59638;52.126;5.434;2024-03-08T12:51:49;101129.69;;;12.75;50.14
71791;BME280;59638;52.126;5.434;2024-03-08T12:54:16;101139.16;;;12.02;52.47